sensor_id;sensor_type;location;lat;lon;timestamp;temperature;humidity
22430;DHT22;11382;48.086;11.632;2023-02-20T00:01:37;7.70;99.90
22430;DHT22;11382;48.086;11.632;2023-02-20T00:04:04;7.70;99.90
22430;DHT22;11382;48.086;11.632;2023-02-20T00:06:32;7.70;99.90
22430;DHT22;11382;48.086;11.632;2023-02-20T00:09:00;7.70;99.90
22430;DHT22;11382;48.086;11.632;2023-02-20T00:11:30;7.70;99.90
22430;DHT22;11382;48.086;11.632;2023-02-20T00:13:58;7.80;99.90
22430;DHT22;11382;48.086;11.632;2023-02-20T00:16:26;7.70;99.90
22430;DHT22;11382;48.086;11.632;2023-02-20T00:18:54;7.70;99.90
22430;DHT22;11382;48.086;11.632;2023-02-20T00:21:22;7.80;99.90
22430;DHT22;11382;48.086;11.632;2023-02-20T00:23:50;7.70;99.90
22430;DHT22;11382;48.086;11.632;2023-02-20T00:26:18;7.70;99.90
22430;DHT22;11382;48.086;11.632;2023-02-20T00:28:47;7.70;99.90
22430;DHT22;11382;48.086;11.632;2023-02-20T00:31:16;7.70;99.90
22430;DHT22;11382;48.086;11.632;2023-02-20T00:33:45;7.70;99.90
22430;DHT22;11382;48.086;11.632;2023-02-20T00:36:16;7.70;99.90
22430;DHT22;11382;48.086;11.632;2023-02-20T00:38:45;7.70;99.90
22430;DHT22;11382;48.086;11.632;2023-02-20T00:41:14;7.60;99.90
22430;DHT22;11382;48.086;11.632;2023-02-20T00:43:43;7.60;99.90
22430;DHT22;11382;48.086;11.632;2023-02-20T00:46:13;7.60;99.90
22430;DHT22;11382;48.086;11.632;2023-02-20T00:48:42;7.60;99.90
22430;DHT22;11382;48.086;11.632;2023-02-20T00:51:29;7.50;99.90
22430;DHT22;11382;48.086;11.632;2023-02-20T00:53:57;7.50;99.90
22430;DHT22;11382;48.086;11.632;2023-02-20T00:56:25;7.60;99.90
22430;DHT22;11382;48.086;11.632;2023-02-20T00:58:55;7.60;99.90
22430;DHT22;11382;48.086;11.632;2023-02-20T01:01:26;7.50;99.90
22430;DHT22;11382;48.086;11.632;2023-02-20T01:03:54;7.50;99.90
22430;DHT22;11382;48.086;11.632;2023-02-20T01:06:22;7.50;99.90
22430;DHT22;11382;48.086;11.632;2023-02-20T01:08:50;7.50;99.90
22430;DHT22;11382;48.086;11.632;2023-02-20T01:11:20;7.50;99.90
22430;DHT22;11382;48.086;11.632;2023-02-20T01:13:48;7.40;99.90
22430;DHT22;11382;48.086;11.632;2023-02-20T01:16:16;7.40;99.90
22430;DHT22;11382;48.086;11.632;2023-02-20T01:18:48;7.40;99.90
22430;DHT22;11382;48.086;11.632;2023-02-20T01:21:16;7.40;99.90
22430;DHT22;11382;48.086;11.632;2023-02-20T01:23:44;7.40;99.90
22430;DHT22;11382;48.086;11.632;2023-02-20T01:26:12;7.50;99.90
22430;DHT22;11382;48.086;11.632;2023-02-20T01:28:43;7.50;99.90
22430;DHT22;11382;48.086;11.632;2023-02-20T01:31:11;7.50;99.90
22430;DHT22;11382;48.086;11.632;2023-02-20T01:33:40;7.50;99.90
22430;DHT22;11382;48.086;11.632;2023-02-20T01:36:11;7.40;99.90
22430;DHT22;11382;48.086;11.632;2023-02-20T01:38:40;7.40;99.90
22430;DHT22;11382;48.086;11.632;2023-02-20T01:41:09;7.50;99.90
22430;DHT22;11382;48.086;11.632;2023-02-20T01:43:37;7.40;99.90
22430;DHT22;11382;48.086;11.632;2023-02-20T01:46:42;7.40;99.90
22430;DHT22;11382;48.086;11.632;2023-02-20T01:49:14;7.40;99.90
22430;DHT22;11382;48.086;11.632;2023-02-20T01:51:47;7.40;99.90
22430;DHT22;11382;48.086;11.632;2023-02-20T01:54:20;7.40;99.90
22430;DHT22;11382;48.086;11.632;2023-02-20T01:56:50;7.40;99.90
22430;DHT22;11382;48.086;11.632;2023-02-20T01:59:21;7.40;99.90
22430;DHT22;11382;48.086;11.632;2023-02-20T02:01:50;7.40;99.90
22430;DHT22;11382;48.086;11.632;2023-02-20T02:04:19;7.40;99.90
22430;DHT22;11382;48.086;11.632;2023-02-20T02:06:51;7.50;99.90
22430;DHT22;11382;48.086;11.632;2023-02-20T02:09:27;7.40;99.90
22430;DHT22;11382;48.086;11.632;2023-02-20T02:11:59;7.40;99.90
22430;DHT22;11382;48.086;11.632;2023-02-20T02:14:27;7.40;99.90
22430;DHT22;11382;48.086;11.632;2023-02-20T02:17:12;7.30;99.90
22430;DHT22;11382;48.086;11.632;2023-02-20T02:20:13;7.40;99.90
22430;DHT22;11382;48.086;11.632;2023-02-20T02:23:32;7.40;99.90
22430;DHT22;11382;48.086;11.632;2023-02-20T02:26:17;7.40;99.90
22430;DHT22;11382;48.086;11.632;2023-02-20T02:29:08;7.30;99.90
22430;DHT22;11382;48.086;11.632;2023-02-20T02:32:00;7.30;99.90
22430;DHT22;11382;48.086;11.632;2023-02-20T02:35:04;7.30;99.90
22430;DHT22;11382;48.086;11.632;2023-02-20T02:37:43;7.30;99.90
22430;DHT22;11382;48.086;11.632;2023-02-20T02:40:20;7.30;99.90
22430;DHT22;11382;48.086;11.632;2023-02-20T02:43:03;7.40;99.90
22430;DHT22;11382;48.086;11.632;2023-02-20T02:45:39;7.40;99.90
22430;DHT22;11382;48.086;11.632;2023-02-20T02:48:16;7.40;99.90
22430;DHT22;11382;48.086;11.632;2023-02-20T02:50:46;7.40;99.90
22430;DHT22;11382;48.086;11.632;2023-02-20T02:53:17;7.40;99.90
22430;DHT22;11382;48.086;11.632;2023-02-20T02:55:45;7.40;99.90
22430;DHT22;11382;48.086;11.632;2023-02-20T02:58:14;7.40;99.90
22430;DHT22;11382;48.086;11.632;2023-02-20T03:00:46;7.40;99.90
22430;DHT22;11382;48.086;11.632;2023-02-20T03:03:20;7.40;99.90
22430;DHT22;11382;48.086;11.632;2023-02-20T03:05:54;7.40;99.90
22430;DHT22;11382;48.086;11.632;2023-02-20T03:08:29;7.50;99.90
22430;DHT22;11382;48.086;11.632;2023-02-20T03:11:04;7.40;99.90
22430;DHT22;11382;48.086;11.632;2023-02-20T03:13:36;7.30;99.90
22430;DHT22;11382;48.086;11.632;2023-02-20T03:16:27;7.30;99.90
22430;DHT22;11382;48.086;11.632;2023-02-20T03:19:00;7.30;99.90
22430;DHT22;11382;48.086;11.632;2023-02-20T03:21:30;7.30;99.90
22430;DHT22;11382;48.086;11.632;2023-02-20T03:24:01;7.30;99.90
22430;DHT22;11382;48.086;11.632;2023-02-20T03:26:33;7.30;99.90
22430;DHT22;11382;48.086;11.632;2023-02-20T03:29:06;7.30;99.90
22430;DHT22;11382;48.086;11.632;2023-02-20T03:31:43;7.30;99.90
22430;DHT22;11382;48.086;11.632;2023-02-20T03:34:17;7.30;99.90
22430;DHT22;11382;48.086;11.632;2023-02-20T03:37:06;7.20;99.90
22430;DHT22;11382;48.086;11.632;2023-02-20T03:40:00;7.20;99.90
22430;DHT22;11382;48.086;11.632;2023-02-20T03:42:53;7.20;99.90
22430;DHT22;11382;48.086;11.632;2023-02-20T03:45:41;7.20;99.90
22430;DHT22;11382;48.086;11.632;2023-02-20T03:48:15;7.10;99.90
22430;DHT22;11382;48.086;11.632;2023-02-20T03:50:47;7.00;99.90
22430;DHT22;11382;48.086;11.632;2023-02-20T03:53:16;7.00;99.90
22430;DHT22;11382;48.086;11.632;2023-02-20T03:55:47;6.80;99.90
22430;DHT22;11382;48.086;11.632;2023-02-20T03:58:17;6.80;99.90
22430;DHT22;11382;48.086;11.632;2023-02-20T04:00:51;6.80;99.90
22430;DHT22;11382;48.086;11.632;2023-02-20T04:03:22;6.70;99.90
22430;DHT22;11382;48.086;11.632;2023-02-20T04:05:54;6.70;99.90
22430;DHT22;11382;48.086;11.632;2023-02-20T04:08:37;6.70;99.90
22430;DHT22;11382;48.086;11.632;2023-02-20T04:11:12;6.80;99.90
22430;DHT22;11382;48.086;11.632;2023-02-20T04:13:43;6.70;99.90
22430;DHT22;11382;48.086;11.632;2023-02-20T04:16:12;6.70;99.90
22430;DHT22;11382;48.086;11.632;2023-02-20T04:18:41;6.70;99.90
22430;DHT22;11382;48.086;11.632;2023-02-20T04:21:16;6.70;99.90
22430;DHT22;11382;48.086;11.632;2023-02-20T04:24:00;6.60;99.90
22430;DHT22;11382;48.086;11.632;2023-02-20T04:26:30;6.50;99.90
22430;DHT22;11382;48.086;11.632;2023-02-20T04:28:58;6.50;99.90
22430;DHT22;11382;48.086;11.632;2023-02-20T04:31:26;6.50;99.90
22430;DHT22;11382;48.086;11.632;2023-02-20T04:33:54;6.40;99.90
22430;DHT22;11382;48.086;11.632;2023-02-20T04:36:23;6.40;99.90
22430;DHT22;11382;48.086;11.632;2023-02-20T04:38:54;6.40;99.90
22430;DHT22;11382;48.086;11.632;2023-02-20T04:41:25;6.30;99.90
22430;DHT22;11382;48.086;11.632;2023-02-20T04:43:55;6.20;99.90
22430;DHT22;11382;48.086;11.632;2023-02-20T04:46:37;6.30;99.90
22430;DHT22;11382;48.086;11.632;2023-02-20T04:49:04;6.30;99.90
22430;DHT22;11382;48.086;11.632;2023-02-20T04:51:33;6.30;99.90
22430;DHT22;11382;48.086;11.632;2023-02-20T04:54:00;6.30;99.90
22430;DHT22;11382;48.086;11.632;2023-02-20T04:56:30;6.20;99.90
22430;DHT22;11382;48.086;11.632;2023-02-20T04:59:00;6.30;99.90
22430;DHT22;11382;48.086;11.632;2023-02-20T05:01:28;6.20;99.90
22430;DHT22;11382;48.086;11.632;2023-02-20T05:03:56;6.20;99.90
22430;DHT22;11382;48.086;11.632;2023-02-20T05:06:24;6.10;99.90
22430;DHT22;11382;48.086;11.632;2023-02-20T05:08:52;6.10;99.90
22430;DHT22;11382;48.086;11.632;2023-02-20T05:11:20;6.00;99.90
22430;DHT22;11382;48.086;11.632;2023-02-20T05:13:48;6.10;99.90
22430;DHT22;11382;48.086;11.632;2023-02-20T05:16:17;6.00;99.90
22430;DHT22;11382;48.086;11.632;2023-02-20T05:18:45;6.10;99.90
22430;DHT22;11382;48.086;11.632;2023-02-20T05:21:13;6.10;99.90
22430;DHT22;11382;48.086;11.632;2023-02-20T05:24:10;6.00;99.90
22430;DHT22;11382;48.086;11.632;2023-02-20T05:26:39;5.90;99.90
22430;DHT22;11382;48.086;11.632;2023-02-20T05:29:07;5.80;99.90
22430;DHT22;11382;48.086;11.632;2023-02-20T05:31:39;5.80;99.90
22430;DHT22;11382;48.086;11.632;2023-02-20T05:34:08;5.80;99.90
22430;DHT22;11382;48.086;11.632;2023-02-20T05:36:36;5.70;99.90
22430;DHT22;11382;48.086;11.632;2023-02-20T05:39:04;5.70;99.90
22430;DHT22;11382;48.086;11.632;2023-02-20T05:41:32;5.60;99.90
22430;DHT22;11382;48.086;11.632;2023-02-20T05:44:00;5.70;99.90
22430;DHT22;11382;48.086;11.632;2023-02-20T05:46:28;5.60;99.90
22430;DHT22;11382;48.086;11.632;2023-02-20T05:48:58;5.50;99.90
22430;DHT22;11382;48.086;11.632;2023-02-20T05:51:27;5.50;99.90
22430;DHT22;11382;48.086;11.632;2023-02-20T05:53:57;5.40;99.90
22430;DHT22;11382;48.086;11.632;2023-02-20T05:56:25;5.40;99.90
22430;DHT22;11382;48.086;11.632;2023-02-20T05:58:53;5.30;99.90
22430;DHT22;11382;48.086;11.632;2023-02-20T06:01:23;5.20;99.90
22430;DHT22;11382;48.086;11.632;2023-02-20T06:03:52;5.20;99.90
22430;DHT22;11382;48.086;11.632;2023-02-20T06:06:21;5.20;99.90
22430;DHT22;11382;48.086;11.632;2023-02-20T06:08:50;5.20;99.90
22430;DHT22;11382;48.086;11.632;2023-02-20T06:11:17;5.20;99.90
22430;DHT22;11382;48.086;11.632;2023-02-20T06:13:45;5.20;99.90
22430;DHT22;11382;48.086;11.632;2023-02-20T06:16:21;5.30;99.90
22430;DHT22;11382;48.086;11.632;2023-02-20T06:18:49;5.30;99.90
22430;DHT22;11382;48.086;11.632;2023-02-20T06:21:17;5.30;99.90
22430;DHT22;11382;48.086;11.632;2023-02-20T06:23:48;5.20;99.90
22430;DHT22;11382;48.086;11.632;2023-02-20T06:26:17;5.20;99.90
22430;DHT22;11382;48.086;11.632;2023-02-20T06:28:45;5.10;99.90
22430;DHT22;11382;48.086;11.632;2023-02-20T06:31:20;5.20;99.90
22430;DHT22;11382;48.086;11.632;2023-02-20T06:33:49;5.20;99.90
22430;DHT22;11382;48.086;11.632;2023-02-20T06:36:20;5.20;99.90
22430;DHT22;11382;48.086;11.632;2023-02-20T06:38:50;5.10;99.90
22430;DHT22;11382;48.086;11.632;2023-02-20T06:41:18;5.10;99.90
22430;DHT22;11382;48.086;11.632;2023-02-20T06:43:46;5.20;99.90
22430;DHT22;11382;48.086;11.632;2023-02-20T06:46:14;5.30;99.90
22430;DHT22;11382;48.086;11.632;2023-02-20T06:48:46;5.30;99.90
22430;DHT22;11382;48.086;11.632;2023-02-20T06:51:15;5.50;99.90
22430;DHT22;11382;48.086;11.632;2023-02-20T06:53:43;5.70;99.90
22430;DHT22;11382;48.086;11.632;2023-02-20T06:56:33;5.80;99.90
22430;DHT22;11382;48.086;11.632;2023-02-20T06:59:03;5.90;99.90
22430;DHT22;11382;48.086;11.632;2023-02-20T07:01:37;6.00;99.90
22430;DHT22;11382;48.086;11.632;2023-02-20T07:04:07;6.00;99.90
22430;DHT22;11382;48.086;11.632;2023-02-20T07:06:36;6.10;99.90
22430;DHT22;11382;48.086;11.632;2023-02-20T07:09:04;6.20;99.90
22430;DHT22;11382;48.086;11.632;2023-02-20T07:11:34;6.20;99.90
22430;DHT22;11382;48.086;11.632;2023-02-20T07:14:02;6.40;99.90
22430;DHT22;11382;48.086;11.632;2023-02-20T07:16:30;6.50;99.90
22430;DHT22;11382;48.086;11.632;2023-02-20T07:18:58;6.70;99.90
22430;DHT22;11382;48.086;11.632;2023-02-20T07:21:26;6.70;99.90
22430;DHT22;11382;48.086;11.632;2023-02-20T07:23:54;7.00;99.90
22430;DHT22;11382;48.086;11.632;2023-02-20T07:26:23;7.10;99.90
22430;DHT22;11382;48.086;11.632;2023-02-20T07:28:54;7.30;99.90
22430;DHT22;11382;48.086;11.632;2023-02-20T07:31:24;7.60;99.90
22430;DHT22;11382;48.086;11.632;2023-02-20T07:33:52;7.90;99.90
22430;DHT22;11382;48.086;11.632;2023-02-20T07:36:20;7.90;99.90
22430;DHT22;11382;48.086;11.632;2023-02-20T07:38:55;7.90;99.90
22430;DHT22;11382;48.086;11.632;2023-02-20T07:41:24;8.00;99.90
22430;DHT22;11382;48.086;11.632;2023-02-20T07:43:56;8.00;99.90
22430;DHT22;11382;48.086;11.632;2023-02-20T07:46:25;8.00;99.90
22430;DHT22;11382;48.086;11.632;2023-02-20T07:48:53;8.00;99.90
22430;DHT22;11382;48.086;11.632;2023-02-20T07:51:21;8.00;99.90
22430;DHT22;11382;48.086;11.632;2023-02-20T07:53:49;8.00;99.90
22430;DHT22;11382;48.086;11.632;2023-02-20T07:56:19;8.00;99.90
22430;DHT22;11382;48.086;11.632;2023-02-20T07:58:48;8.10;99.90
22430;DHT22;11382;48.086;11.632;2023-02-20T08:01:18;8.10;99.90
22430;DHT22;11382;48.086;11.632;2023-02-20T08:03:46;7.90;99.90
22430;DHT22;11382;48.086;11.632;2023-02-20T08:06:16;7.90;99.90
22430;DHT22;11382;48.086;11.632;2023-02-20T08:08:46;8.00;99.90
22430;DHT22;11382;48.086;11.632;2023-02-20T08:11:16;8.00;99.90
22430;DHT22;11382;48.086;11.632;2023-02-20T08:13:44;8.60;99.90
22430;DHT22;11382;48.086;11.632;2023-02-20T08:16:13;9.60;99.90
22430;DHT22;11382;48.086;11.632;2023-02-20T08:18:43;10.00;99.90
22430;DHT22;11382;48.086;11.632;2023-02-20T08:21:11;9.80;99.90
22430;DHT22;11382;48.086;11.632;2023-02-20T08:23:38;9.60;99.90
22430;DHT22;11382;48.086;11.632;2023-02-20T08:26:07;9.70;99.90
22430;DHT22;11382;48.086;11.632;2023-02-20T08:28:35;10.00;99.90
22430;DHT22;11382;48.086;11.632;2023-02-20T08:31:03;10.30;99.90
22430;DHT22;11382;48.086;11.632;2023-02-20T08:33:31;10.80;99.90
22430;DHT22;11382;48.086;11.632;2023-02-20T08:36:00;11.30;99.90
22430;DHT22;11382;48.086;11.632;2023-02-20T08:38:30;11.40;99.90
22430;DHT22;11382;48.086;11.632;2023-02-20T08:41:02;11.00;99.90
22430;DHT22;11382;48.086;11.632;2023-02-20T08:43:31;10.80;99.90
22430;DHT22;11382;48.086;11.632;2023-02-20T08:45:59;10.60;99.90
22430;DHT22;11382;48.086;11.632;2023-02-20T08:48:27;10.90;99.90
22430;DHT22;11382;48.086;11.632;2023-02-20T08:50:56;11.30;99.90
22430;DHT22;11382;48.086;11.632;2023-02-20T08:53:25;11.40;99.90
22430;DHT22;11382;48.086;11.632;2023-02-20T08:55:53;11.60;99.90
22430;DHT22;11382;48.086;11.632;2023-02-20T08:58:22;11.80;99.90
22430;DHT22;11382;48.086;11.632;2023-02-20T09:00:50;11.70;99.90
22430;DHT22;11382;48.086;11.632;2023-02-20T09:03:18;12.10;99.90
22430;DHT22;11382;48.086;11.632;2023-02-20T09:05:47;12.60;99.90
22430;DHT22;11382;48.086;11.632;2023-02-20T09:08:16;12.50;99.90
22430;DHT22;11382;48.086;11.632;2023-02-20T09:10:45;12.40;99.90
22430;DHT22;11382;48.086;11.632;2023-02-20T09:13:13;12.40;99.90
22430;DHT22;11382;48.086;11.632;2023-02-20T09:15:41;11.90;99.90
22430;DHT22;11382;48.086;11.632;2023-02-20T09:18:11;12.30;99.90
22430;DHT22;11382;48.086;11.632;2023-02-20T09:20:40;13.90;99.90
22430;DHT22;11382;48.086;11.632;2023-02-20T09:23:09;14.90;99.90
22430;DHT22;11382;48.086;11.632;2023-02-20T09:25:39;16.20;99.90
22430;DHT22;11382;48.086;11.632;2023-02-20T09:28:08;17.20;98.30
22430;DHT22;11382;48.086;11.632;2023-02-20T09:30:36;17.40;95.50
22430;DHT22;11382;48.086;11.632;2023-02-20T09:33:04;17.70;95.20
22430;DHT22;11382;48.086;11.632;2023-02-20T09:35:32;17.70;94.80
22430;DHT22;11382;48.086;11.632;2023-02-20T09:38:00;18.90;94.00
22430;DHT22;11382;48.086;11.632;2023-02-20T09:40:30;19.60;91.70
22430;DHT22;11382;48.086;11.632;2023-02-20T09:43:18;20.40;89.40
22430;DHT22;11382;48.086;11.632;2023-02-20T09:45:54;20.40;86.30
22430;DHT22;11382;48.086;11.632;2023-02-20T09:48:36;19.60;88.10
22430;DHT22;11382;48.086;11.632;2023-02-20T09:51:10;19.00;88.40
22430;DHT22;11382;48.086;11.632;2023-02-20T09:53:44;18.70;89.20
22430;DHT22;11382;48.086;11.632;2023-02-20T09:56:19;18.50;89.60
22430;DHT22;11382;48.086;11.632;2023-02-20T09:58:53;18.60;89.00
22430;DHT22;11382;48.086;11.632;2023-02-20T10:01:26;18.50;89.20
22430;DHT22;11382;48.086;11.632;2023-02-20T10:03:56;18.50;88.90
22430;DHT22;11382;48.086;11.632;2023-02-20T10:06:26;17.00;90.30
22430;DHT22;11382;48.086;11.632;2023-02-20T10:08:55;17.00;91.80
22430;DHT22;11382;48.086;11.632;2023-02-20T10:11:37;18.00;90.30
22430;DHT22;11382;48.086;11.632;2023-02-20T10:14:33;18.00;90.00
22430;DHT22;11382;48.086;11.632;2023-02-20T10:17:09;19.00;89.70
22430;DHT22;11382;48.086;11.632;2023-02-20T10:19:51;19.40;86.80
22430;DHT22;11382;48.086;11.632;2023-02-20T10:22:24;20.50;82.30
22430;DHT22;11382;48.086;11.632;2023-02-20T10:25:07;20.60;82.20
22430;DHT22;11382;48.086;11.632;2023-02-20T10:27:43;20.30;80.10
22430;DHT22;11382;48.086;11.632;2023-02-20T10:30:19;20.70;80.00
22430;DHT22;11382;48.086;11.632;2023-02-20T10:32:53;20.10;79.90
22430;DHT22;11382;48.086;11.632;2023-02-20T10:35:30;20.70;79.80
22430;DHT22;11382;48.086;11.632;2023-02-20T10:38:04;20.60;79.40
22430;DHT22;11382;48.086;11.632;2023-02-20T10:40:38;20.50;78.40
22430;DHT22;11382;48.086;11.632;2023-02-20T10:43:13;19.60;79.30
22430;DHT22;11382;48.086;11.632;2023-02-20T10:45:50;18.90;80.80
22430;DHT22;11382;48.086;11.632;2023-02-20T10:48:20;17.60;82.70
22430;DHT22;11382;48.086;11.632;2023-02-20T10:50:53;17.00;84.90
22430;DHT22;11382;48.086;11.632;2023-02-20T10:53:30;16.90;85.80
22430;DHT22;11382;48.086;11.632;2023-02-20T10:56:06;17.10;86.20
22430;DHT22;11382;48.086;11.632;2023-02-20T10:58:41;16.40;87.00
22430;DHT22;11382;48.086;11.632;2023-02-20T11:01:15;16.60;87.00
22430;DHT22;11382;48.086;11.632;2023-02-20T11:03:52;17.20;85.80
22430;DHT22;11382;48.086;11.632;2023-02-20T11:06:24;18.30;85.80
22430;DHT22;11382;48.086;11.632;2023-02-20T11:08:54;19.40;80.90
22430;DHT22;11382;48.086;11.632;2023-02-20T11:11:30;19.60;79.30
22430;DHT22;11382;48.086;11.632;2023-02-20T11:14:00;19.20;80.30
22430;DHT22;11382;48.086;11.632;2023-02-20T11:16:35;19.50;79.90
22430;DHT22;11382;48.086;11.632;2023-02-20T11:19:10;19.80;77.70
22430;DHT22;11382;48.086;11.632;2023-02-20T11:21:41;20.00;77.40
22430;DHT22;11382;48.086;11.632;2023-02-20T11:24:30;19.90;78.50
22430;DHT22;11382;48.086;11.632;2023-02-20T11:27:10;20.30;76.90
22430;DHT22;11382;48.086;11.632;2023-02-20T11:29:47;20.00;78.00
22430;DHT22;11382;48.086;11.632;2023-02-20T11:32:24;19.90;78.60
22430;DHT22;11382;48.086;11.632;2023-02-20T11:35:22;20.40;77.00
22430;DHT22;11382;48.086;11.632;2023-02-20T11:38:26;20.60;76.80
22430;DHT22;11382;48.086;11.632;2023-02-20T11:41:21;20.70;74.10
22430;DHT22;11382;48.086;11.632;2023-02-20T11:44:06;20.20;75.80
22430;DHT22;11382;48.086;11.632;2023-02-20T11:46:34;19.70;77.70
22430;DHT22;11382;48.086;11.632;2023-02-20T11:49:05;20.70;76.80
22430;DHT22;11382;48.086;11.632;2023-02-20T11:51:37;20.80;74.60
22430;DHT22;11382;48.086;11.632;2023-02-20T11:54:07;20.40;75.00
22430;DHT22;11382;48.086;11.632;2023-02-20T11:56:35;20.30;75.90
22430;DHT22;11382;48.086;11.632;2023-02-20T11:59:29;20.60;76.20
22430;DHT22;11382;48.086;11.632;2023-02-20T12:02:28;20.30;76.00
22430;DHT22;11382;48.086;11.632;2023-02-20T12:05:09;20.00;74.60
22430;DHT22;11382;48.086;11.632;2023-02-20T12:07:40;19.90;77.30
22430;DHT22;11382;48.086;11.632;2023-02-20T12:10:26;19.70;78.60
22430;DHT22;11382;48.086;11.632;2023-02-20T12:12:55;20.10;74.70
22430;DHT22;11382;48.086;11.632;2023-02-20T12:15:25;19.80;76.50
22430;DHT22;11382;48.086;11.632;2023-02-20T12:18:06;19.80;75.40
22430;DHT22;11382;48.086;11.632;2023-02-20T12:20:40;19.20;75.40
22430;DHT22;11382;48.086;11.632;2023-02-20T12:23:17;18.20;77.60
22430;DHT22;11382;48.086;11.632;2023-02-20T12:25:59;17.60;80.00
22430;DHT22;11382;48.086;11.632;2023-02-20T12:28:36;17.10;81.60
22430;DHT22;11382;48.086;11.632;2023-02-20T12:31:19;17.00;81.80
22430;DHT22;11382;48.086;11.632;2023-02-20T12:34:00;17.00;82.60
22430;DHT22;11382;48.086;11.632;2023-02-20T12:36:37;16.90;82.50
22430;DHT22;11382;48.086;11.632;2023-02-20T12:39:14;16.70;81.90
22430;DHT22;11382;48.086;11.632;2023-02-20T12:41:52;16.60;84.00
22430;DHT22;11382;48.086;11.632;2023-02-20T12:44:32;16.70;81.70
22430;DHT22;11382;48.086;11.632;2023-02-20T12:47:15;16.70;83.00
22430;DHT22;11382;48.086;11.632;2023-02-20T12:49:55;16.80;83.50
22430;DHT22;11382;48.086;11.632;2023-02-20T12:52:43;16.70;84.30
22430;DHT22;11382;48.086;11.632;2023-02-20T12:55:21;16.60;83.30
22430;DHT22;11382;48.086;11.632;2023-02-20T12:58:04;16.70;83.30
22430;DHT22;11382;48.086;11.632;2023-02-20T13:00:37;16.80;82.20
22430;DHT22;11382;48.086;11.632;2023-02-20T13:03:10;16.70;82.20
22430;DHT22;11382;48.086;11.632;2023-02-20T13:05:42;16.70;82.70
22430;DHT22;11382;48.086;11.632;2023-02-20T13:08:15;16.60;83.10
22430;DHT22;11382;48.086;11.632;2023-02-20T13:10:51;16.60;83.40
22430;DHT22;11382;48.086;11.632;2023-02-20T13:13:20;16.50;81.90
22430;DHT22;11382;48.086;11.632;2023-02-20T13:15:55;16.50;83.10
22430;DHT22;11382;48.086;11.632;2023-02-20T13:18:33;16.30;82.10
22430;DHT22;11382;48.086;11.632;2023-02-20T13:21:07;16.10;83.20
22430;DHT22;11382;48.086;11.632;2023-02-20T13:23:38;16.20;82.70
22430;DHT22;11382;48.086;11.632;2023-02-20T13:29:14;16.40;81.40
22430;DHT22;11382;48.086;11.632;2023-02-20T13:31:46;16.40;82.70
22430;DHT22;11382;48.086;11.632;2023-02-20T13:34:33;16.40;81.20
22430;DHT22;11382;48.086;11.632;2023-02-20T13:37:03;16.50;81.70
22430;DHT22;11382;48.086;11.632;2023-02-20T13:39:42;16.40;79.70
22430;DHT22;11382;48.086;11.632;2023-02-20T13:42:28;16.60;80.20
22430;DHT22;11382;48.086;11.632;2023-02-20T13:44:56;16.60;82.40
22430;DHT22;11382;48.086;11.632;2023-02-20T13:47:33;16.60;84.30
22430;DHT22;11382;48.086;11.632;2023-02-20T13:50:26;16.50;85.50
22430;DHT22;11382;48.086;11.632;2023-02-20T13:52:54;16.60;86.80
22430;DHT22;11382;48.086;11.632;2023-02-20T13:55:26;16.60;85.10
22430;DHT22;11382;48.086;11.632;2023-02-20T13:57:56;16.60;84.50
22430;DHT22;11382;48.086;11.632;2023-02-20T14:00:35;16.50;85.10
22430;DHT22;11382;48.086;11.632;2023-02-20T14:03:12;16.50;83.60
22430;DHT22;11382;48.086;11.632;2023-02-20T14:05:41;16.30;83.90
22430;DHT22;11382;48.086;11.632;2023-02-20T14:08:15;16.10;85.00
22430;DHT22;11382;48.086;11.632;2023-02-20T14:10:45;16.10;84.30
22430;DHT22;11382;48.086;11.632;2023-02-20T14:13:17;16.20;86.90
22430;DHT22;11382;48.086;11.632;2023-02-20T14:16:04;16.20;86.40
22430;DHT22;11382;48.086;11.632;2023-02-20T14:18:49;16.20;86.90
22430;DHT22;11382;48.086;11.632;2023-02-20T14:21:19;16.10;86.30
22430;DHT22;11382;48.086;11.632;2023-02-20T14:23:49;16.00;85.70
22430;DHT22;11382;48.086;11.632;2023-02-20T14:26:22;15.90;86.40
22430;DHT22;11382;48.086;11.632;2023-02-20T14:28:52;15.90;86.60
22430;DHT22;11382;48.086;11.632;2023-02-20T14:31:22;15.80;85.50
22430;DHT22;11382;48.086;11.632;2023-02-20T14:33:53;15.50;86.90
22430;DHT22;11382;48.086;11.632;2023-02-20T14:36:45;15.50;87.40
22430;DHT22;11382;48.086;11.632;2023-02-20T14:39:26;15.60;87.50
22430;DHT22;11382;48.086;11.632;2023-02-20T14:42:01;15.60;87.00
22430;DHT22;11382;48.086;11.632;2023-02-20T14:44:31;15.50;87.40
22430;DHT22;11382;48.086;11.632;2023-02-20T14:47:05;15.50;87.20
22430;DHT22;11382;48.086;11.632;2023-02-20T14:49:34;15.50;87.70
22430;DHT22;11382;48.086;11.632;2023-02-20T14:52:20;15.50;88.10
22430;DHT22;11382;48.086;11.632;2023-02-20T14:54:59;15.50;89.40
22430;DHT22;11382;48.086;11.632;2023-02-20T14:57:30;15.60;88.10
22430;DHT22;11382;48.086;11.632;2023-02-20T15:00:22;15.70;87.50
22430;DHT22;11382;48.086;11.632;2023-02-20T15:02:51;15.70;85.50
22430;DHT22;11382;48.086;11.632;2023-02-20T15:05:27;15.60;87.00
22430;DHT22;11382;48.086;11.632;2023-02-20T15:08:01;15.70;86.20
22430;DHT22;11382;48.086;11.632;2023-02-20T15:10:35;15.70;85.30
22430;DHT22;11382;48.086;11.632;2023-02-20T15:13:08;15.70;85.50
22430;DHT22;11382;48.086;11.632;2023-02-20T15:15:38;15.70;84.60
22430;DHT22;11382;48.086;11.632;2023-02-20T15:18:10;15.60;83.80
22430;DHT22;11382;48.086;11.632;2023-02-20T15:20:40;15.50;85.40
22430;DHT22;11382;48.086;11.632;2023-02-20T15:23:20;15.50;85.00
22430;DHT22;11382;48.086;11.632;2023-02-20T15:25:50;15.40;84.90
22430;DHT22;11382;48.086;11.632;2023-02-20T15:28:27;15.40;86.10
22430;DHT22;11382;48.086;11.632;2023-02-20T15:31:03;15.40;86.40
22430;DHT22;11382;48.086;11.632;2023-02-20T15:33:34;15.40;86.90
22430;DHT22;11382;48.086;11.632;2023-02-20T15:36:02;15.40;86.90
22430;DHT22;11382;48.086;11.632;2023-02-20T15:38:33;15.20;86.20
22430;DHT22;11382;48.086;11.632;2023-02-20T15:41:03;15.10;86.90
22430;DHT22;11382;48.086;11.632;2023-02-20T15:43:33;14.90;87.50
22430;DHT22;11382;48.086;11.632;2023-02-20T15:46:13;14.80;88.90
22430;DHT22;11382;48.086;11.632;2023-02-20T15:48:41;14.90;88.90
22430;DHT22;11382;48.086;11.632;2023-02-20T15:51:10;14.80;88.80
22430;DHT22;11382;48.086;11.632;2023-02-20T15:53:38;14.90;88.90
22430;DHT22;11382;48.086;11.632;2023-02-20T15:56:10;14.80;87.20
22430;DHT22;11382;48.086;11.632;2023-02-20T15:58:40;14.70;87.00
22430;DHT22;11382;48.086;11.632;2023-02-20T16:01:11;14.70;87.30
22430;DHT22;11382;48.086;11.632;2023-02-20T16:03:39;14.60;86.80
22430;DHT22;11382;48.086;11.632;2023-02-20T16:06:19;14.50;86.90